createdAt,value
2023-04-12T05:03:20.069Z,39.35
2023-04-12T05:04:19.980Z,38.24
2023-04-12T05:05:19.991Z,38.05
2023-04-12T05:06:19.983Z,37.96
2023-04-12T05:07:20.038Z,37.90
2023-04-12T05:08:20.053Z,37.85
2023-04-12T05:09:21.075Z,37.79
2023-04-12T05:10:20.107Z,37.70
2023-04-12T05:11:20.115Z,37.69
2023-04-12T05:12:20.155Z,37.64
2023-04-12T05:13:21.188Z,37.65
2023-04-12T05:14:20.451Z,37.60
2023-04-12T05:15:21.243Z,37.61
2023-04-12T05:16:21.341Z,37.61
2023-04-12T05:17:20.380Z,37.15
2023-04-12T05:18:21.354Z,36.83
2023-04-12T05:19:21.412Z,36.92
2023-04-12T05:20:21.412Z,36.93
2023-04-12T05:21:22.673Z,36.51
2023-04-12T05:22:20.487Z,37.27
2023-04-12T05:23:21.436Z,36.37
2023-04-12T05:24:21.536Z,36.89
2023-04-12T05:25:21.552Z,37.52
2023-04-12T05:26:21.422Z,37.53
2023-04-12T05:27:21.409Z,37.67
2023-04-12T05:28:20.388Z,37.57
2023-04-12T05:29:20.386Z,37.37
2023-04-12T05:30:20.385Z,37.47
2023-04-12T05:31:21.505Z,37.46
2023-04-12T05:32:20.439Z,37.39
2023-04-12T05:33:21.398Z,37.33
2023-04-12T05:34:21.349Z,37.29
2023-04-12T05:35:21.414Z,37.35
2023-04-12T05:36:21.336Z,37.39
2023-04-12T05:37:21.346Z,37.14
2023-04-12T05:38:21.350Z,37.20
2023-04-12T05:39:20.866Z,37.15
2023-04-12T05:40:21.319Z,37.04
2023-04-12T05:41:21.321Z,37.33
2023-04-12T05:42:21.341Z,37.16
2023-04-12T05:43:21.308Z,37.12
2023-04-12T05:44:21.290Z,37.16
2023-04-12T05:45:21.336Z,37.37
2023-04-12T05:46:21.328Z,37.44
2023-04-12T05:47:21.315Z,37.58
2023-04-12T05:48:21.265Z,37.65
2023-04-12T05:49:21.265Z,37.67
2023-04-12T05:50:21.257Z,37.60
2023-04-12T05:51:30.639Z,37.70
2023-04-12T05:52:21.586Z,37.82
2023-04-12T05:53:21.225Z,37.84
2023-04-12T05:54:21.329Z,37.98
2023-04-12T05:55:21.223Z,38.02
2023-04-12T05:56:21.254Z,38.15
2023-04-12T05:57:21.256Z,38.20
2023-04-12T05:58:21.209Z,38.42
2023-04-12T05:59:20.226Z,38.44
2023-04-12T06:00:20.204Z,38.54
2023-04-12T06:01:21.210Z,38.68
2023-04-12T06:02:21.678Z,38.77
2023-04-12T06:03:21.282Z,38.87
2023-04-12T06:04:21.326Z,38.92
2023-04-12T06:05:20.212Z,38.93
2023-04-12T06:06:21.160Z,39.07
2023-04-12T06:07:21.196Z,39.19
2023-04-12T06:08:21.154Z,39.31
2023-04-12T06:09:20.137Z,39.53
2023-04-12T06:10:21.150Z,39.51
2023-04-12T06:11:21.142Z,39.68
2023-04-12T06:12:20.134Z,39.80
2023-04-12T06:13:20.137Z,39.94
2023-04-12T06:14:21.095Z,40.01
2023-04-12T06:15:21.162Z,40.12
2023-04-12T06:16:21.205Z,40.16
2023-04-12T06:17:21.091Z,40.12
2023-04-12T06:18:20.070Z,40.29
2023-04-12T06:19:21.084Z,40.44
2023-04-12T06:20:21.055Z,40.52
2023-04-12T06:21:20.081Z,40.60
2023-04-12T06:22:20.050Z,40.63
2023-04-12T06:23:20.065Z,40.73
2023-04-12T06:24:21.036Z,40.88
2023-04-12T06:25:20.040Z,41.01
2023-04-12T06:26:21.101Z,40.98
2023-04-12T06:27:20.020Z,41.18
2023-04-12T06:28:21.008Z,41.21
2023-04-12T06:29:21.015Z,41.26
2023-04-12T06:30:20.004Z,41.41
2023-04-12T06:31:21.194Z,41.41
2023-04-12T06:32:20.999Z,41.69
2023-04-12T06:33:20.976Z,41.71
2023-04-12T06:34:20.990Z,41.77
2023-04-12T06:35:20.969Z,41.82
2023-04-12T06:36:19.957Z,41.96
2023-04-12T06:37:19.958Z,41.95
2023-04-12T06:38:20.958Z,41.98
2023-04-12T06:39:20.017Z,42.11
2023-04-12T06:40:20.019Z,42.22
2023-04-12T06:41:21.028Z,42.24
2023-04-12T06:42:20.053Z,42.29
2023-04-12T06:43:20.058Z,42.25
2023-04-12T06:44:21.061Z,42.40
2023-04-12T06:45:21.090Z,42.44
2023-04-12T06:46:20.177Z,42.44
2023-04-12T06:47:21.260Z,42.69
2023-04-12T06:48:21.137Z,42.73
2023-04-12T06:49:21.155Z,42.80
2023-04-12T06:50:21.193Z,42.74
2023-04-12T06:51:21.203Z,42.96
2023-04-12T06:52:21.540Z,43.13
2023-04-12T06:53:20.228Z,42.97
2023-04-12T06:54:21.252Z,43.19
2023-04-12T06:55:21.289Z,43.16
2023-04-12T06:56:21.331Z,42.98
2023-04-12T06:57:20.544Z,42.94
2023-04-12T06:58:21.368Z,42.96
2023-04-12T06:59:21.397Z,42.91
2023-04-12T07:00:20.419Z,42.96
2023-04-12T07:01:20.515Z,42.97
2023-04-12T07:02:21.557Z,42.90
2023-04-12T07:03:20.573Z,42.90
2023-04-12T07:04:20.577Z,42.96
2023-04-12T07:05:21.595Z,42.92
2023-04-12T07:06:25.673Z,42.89
2023-04-12T07:07:21.722Z,42.95
2023-04-12T07:08:21.764Z,42.94
2023-04-12T07:09:21.775Z,42.99
2023-04-12T07:10:20.826Z,42.95
2023-04-12T07:11:22.249Z,42.95
2023-04-12T07:12:21.871Z,42.94
2023-04-12T07:13:21.909Z,42.95
2023-04-12T07:14:20.951Z,42.85
2023-04-12T07:15:21.980Z,42.85
2023-04-12T07:16:21.053Z,42.82
2023-04-12T07:17:22.133Z,42.82
2023-04-12T07:18:22.098Z,42.75
2023-04-12T07:19:22.113Z,42.72
2023-04-12T07:20:21.383Z,42.76
2023-04-12T07:21:22.146Z,42.72
2023-04-12T07:22:22.188Z,42.64
2023-04-12T07:23:21.203Z,42.65
2023-04-12T07:24:21.219Z,42.62
2023-04-12T07:25:21.258Z,42.64
2023-04-12T07:26:22.289Z,42.59
2023-04-12T07:27:21.460Z,42.57
2023-04-12T07:28:22.365Z,42.51
2023-04-12T07:29:21.356Z,42.52
2023-04-12T07:30:22.389Z,42.44
2023-04-12T07:31:22.410Z,42.42
2023-04-12T07:32:22.538Z,42.37
2023-04-12T07:33:21.584Z,42.35
2023-04-12T07:34:22.672Z,42.30
2023-04-12T07:35:21.518Z,42.23
2023-04-12T07:36:22.610Z,42.23
2023-04-12T07:37:22.571Z,42.17
2023-04-12T07:38:22.594Z,42.20
2023-04-12T07:39:21.668Z,42.12
2023-04-12T07:40:22.736Z,42.10
2023-04-12T07:41:22.735Z,42.11
2023-04-12T07:42:22.753Z,42.06
2023-04-12T07:43:22.781Z,42.03
2023-04-12T07:44:22.779Z,42.03
2023-04-12T07:45:22.790Z,42.02
2023-04-12T07:46:22.982Z,42.00
2023-04-12T07:47:23.075Z,42.15
2023-04-12T07:48:21.787Z,42.18
2023-04-12T07:49:21.811Z,41.97
2023-04-12T07:50:22.842Z,42.06
2023-04-12T07:51:22.863Z,41.89
2023-04-12T07:52:23.073Z,41.90
2023-04-12T07:53:23.042Z,41.86
2023-04-12T07:54:23.748Z,41.83
2023-04-12T07:55:23.016Z,41.85
2023-04-12T07:56:22.085Z,41.99
2023-04-12T07:57:23.114Z,42.09
2023-04-12T07:58:23.134Z,42.17
2023-04-12T07:59:23.352Z,42.16
2023-04-12T08:00:23.218Z,42.18
2023-04-12T08:01:23.221Z,42.27
2023-04-12T08:02:23.308Z,42.35
2023-04-12T08:03:23.322Z,42.34
2023-04-12T08:04:22.416Z,42.40
2023-04-12T08:05:23.268Z,42.49
2023-04-12T08:06:23.291Z,42.59
2023-04-12T08:07:23.374Z,42.71
2023-04-12T08:08:23.396Z,42.69
2023-04-12T08:09:23.442Z,42.70
2023-04-12T08:10:23.508Z,42.78
2023-04-12T08:11:22.542Z,42.91
2023-04-12T08:12:22.587Z,42.84
2023-04-12T08:13:23.624Z,43.01
2023-04-12T08:14:23.674Z,42.92
2023-04-12T08:15:22.866Z,43.05
2023-04-12T08:16:23.817Z,43.07
2023-04-12T08:17:23.801Z,43.15
2023-04-12T08:18:23.788Z,43.23
2023-04-12T08:19:22.832Z,43.30
2023-04-12T08:20:22.891Z,43.24
2023-04-12T08:21:23.958Z,43.40
2023-04-12T08:22:24.068Z,43.60
2023-04-12T08:23:22.960Z,43.60
2023-04-12T08:24:22.976Z,43.65
2023-04-12T08:25:24.032Z,43.79
2023-04-12T08:26:24.041Z,43.80
2023-04-12T08:27:24.097Z,43.95
2023-04-12T08:28:24.105Z,43.86
2023-04-12T08:29:23.154Z,43.86
2023-04-12T08:30:24.218Z,44.09
2023-04-12T08:31:23.336Z,44.11
2023-04-12T08:32:24.254Z,44.25
2023-04-12T08:33:23.278Z,44.23
2023-04-12T08:34:23.325Z,44.30
2023-04-12T08:35:23.361Z,44.39
2023-04-12T08:36:24.414Z,44.40
2023-04-12T08:37:24.487Z,44.47
2023-04-12T08:38:37.228Z,44.50
2023-04-12T08:39:24.502Z,44.48
2023-04-12T08:40:24.505Z,44.59
2023-04-12T08:41:23.493Z,44.66
2023-04-12T08:42:23.597Z,44.80
2023-04-12T08:43:23.487Z,44.73
2023-04-12T08:44:24.468Z,44.31
2023-04-12T08:45:24.454Z,43.98
2023-04-12T08:46:24.467Z,43.61
2023-04-12T08:47:24.720Z,42.81
2023-04-12T08:48:23.432Z,41.84
2023-04-12T08:49:24.448Z,41.81
2023-04-12T08:50:24.497Z,42.47
2023-04-12T08:51:24.429Z,42.53
2023-04-12T08:52:24.423Z,40.84
2023-04-12T08:53:23.429Z,38.82
2023-04-12T08:54:24.407Z,38.58
2023-04-12T08:55:24.424Z,38.79
2023-04-12T08:56:23.544Z,38.67
2023-04-12T08:57:23.628Z,38.29
2023-04-12T08:58:23.583Z,38.13
2023-04-12T08:59:23.609Z,37.84
2023-04-12T09:00:24.686Z,39.76
2023-04-12T09:01:24.743Z,40.20
2023-04-12T09:02:24.939Z,39.82
2023-04-12T09:03:24.945Z,39.91
2023-04-12T09:04:24.823Z,38.48
2023-04-12T09:05:23.850Z,38.72
2023-04-12T09:06:25.634Z,37.33
2023-04-12T09:07:24.942Z,36.42
2023-04-12T09:08:24.944Z,36.53
2023-04-12T09:09:24.956Z,36.99
2023-04-12T09:10:25.008Z,37.12
2023-04-12T09:11:25.006Z,37.13
2023-04-12T09:12:25.065Z,37.01
2023-04-12T09:13:24.089Z,37.31
2023-04-12T09:14:24.107Z,37.50
2023-04-12T09:15:25.134Z,37.41
2023-04-12T09:16:25.153Z,37.19
2023-04-12T09:17:25.240Z,38.84
2023-04-12T09:18:25.207Z,38.68
2023-04-12T09:19:24.364Z,38.32
2023-04-12T09:20:25.232Z,37.80
2023-04-12T09:21:25.247Z,37.51
2023-04-12T09:22:25.322Z,37.95
2023-04-12T09:23:25.316Z,37.80
2023-04-12T09:24:24.383Z,37.47
2023-04-12T09:25:25.335Z,37.56
2023-04-12T09:26:24.346Z,37.56
2023-04-12T09:27:25.377Z,37.50
2023-04-12T09:28:24.424Z,37.43
2023-04-12T09:29:24.439Z,37.32
2023-04-12T09:30:25.464Z,37.07
2023-04-12T09:31:24.529Z,35.69
2023-04-12T09:32:25.595Z,35.46
2023-04-12T09:33:24.569Z,35.52
2023-04-12T09:34:25.962Z,35.45
2023-04-12T09:35:24.646Z,35.18
2023-04-12T09:36:24.651Z,35.10
2023-04-12T09:37:25.617Z,34.94
2023-04-12T09:38:25.599Z,35.16
2023-04-12T09:39:25.562Z,35.51
2023-04-12T09:40:25.570Z,35.59
2023-04-12T09:41:27.138Z,35.61
2023-04-12T09:42:33.964Z,35.70
2023-04-12T09:43:25.561Z,35.90
2023-04-12T09:44:25.543Z,36.04
2023-04-12T09:45:25.882Z,36.61
2023-04-12T09:46:25.538Z,37.61
2023-04-12T09:47:24.554Z,37.69
2023-04-12T09:48:25.633Z,36.17
2023-04-12T09:49:25.499Z,36.45
2023-04-12T09:50:25.493Z,36.94
2023-04-12T09:51:25.540Z,36.87
2023-04-12T09:52:25.533Z,37.10
2023-04-12T09:53:25.640Z,37.14
2023-04-12T09:54:25.460Z,36.31
2023-04-12T09:55:25.588Z,36.74
2023-04-12T09:56:25.453Z,37.26
2023-04-12T09:57:25.432Z,37.30
2023-04-12T09:58:25.522Z,37.48
2023-04-12T09:59:25.443Z,37.36
2023-04-12T10:00:25.462Z,37.31
2023-04-12T10:01:24.480Z,37.71
2023-04-12T10:02:25.641Z,37.67
2023-04-12T10:03:24.495Z,37.37
2023-04-12T10:04:25.537Z,37.40
2023-04-12T10:05:26.040Z,37.15
2023-04-12T10:06:25.393Z,37.02
2023-04-12T10:07:25.581Z,37.03
2023-04-12T10:08:25.433Z,37.15
2023-04-12T10:09:25.441Z,37.16
2023-04-12T10:10:25.446Z,37.37
2023-04-12T10:11:25.437Z,37.50
2023-04-12T10:12:25.444Z,37.43
2023-04-12T10:13:24.441Z,37.51
2023-04-12T10:14:24.429Z,37.68
2023-04-12T10:15:25.478Z,37.74
2023-04-12T10:16:24.468Z,37.82
2023-04-12T10:17:24.457Z,38.05
2023-04-12T10:18:25.407Z,38.13
2023-04-12T10:19:25.382Z,38.19
2023-04-12T10:20:28.523Z,38.40
2023-04-12T10:21:25.600Z,38.43
2023-04-12T10:22:25.394Z,38.52
2023-04-12T10:23:25.525Z,38.43
2023-04-12T10:24:24.379Z,38.45
2023-04-12T10:25:25.507Z,38.50
2023-04-12T10:26:25.355Z,38.54
2023-04-12T10:27:24.335Z,38.81
2023-04-12T10:28:25.342Z,38.72
2023-04-12T10:29:25.335Z,38.72
2023-04-12T10:30:25.331Z,38.73
2023-04-12T10:31:24.449Z,39.01
2023-04-12T10:32:25.339Z,39.06
2023-04-12T10:33:24.387Z,39.23
2023-04-12T10:34:24.402Z,39.61
2023-04-12T10:35:25.396Z,39.67
2023-04-12T10:36:24.424Z,39.93
2023-04-12T10:37:25.405Z,39.74
2023-04-12T10:38:25.430Z,39.99
2023-04-12T10:39:24.494Z,39.91
2023-04-12T10:40:24.540Z,39.93
2023-04-12T10:41:24.520Z,40.13
2023-04-12T10:42:25.562Z,40.47
2023-04-12T10:43:25.677Z,40.44
2023-04-12T10:44:25.704Z,40.59
2023-04-12T10:45:25.741Z,40.71
2023-04-12T10:46:25.817Z,41.10
2023-04-12T10:47:24.987Z,41.40
2023-04-12T10:48:26.165Z,41.00
2023-04-12T10:49:25.923Z,41.07
2023-04-12T10:50:25.956Z,41.07
2023-04-12T10:51:25.981Z,40.74
2023-04-12T10:52:25.007Z,40.55
2023-04-12T10:53:26.119Z,40.66
2023-04-12T10:54:25.132Z,40.57
2023-04-12T10:55:25.139Z,40.51
2023-04-12T10:56:25.144Z,40.44
2023-04-12T10:57:26.214Z,40.43
2023-04-12T10:58:26.254Z,40.62
2023-04-12T10:59:31.406Z,40.49
2023-04-12T11:00:26.316Z,40.49
2023-04-12T11:01:26.358Z,40.16
2023-04-12T11:02:25.594Z,40.24
2023-04-12T11:03:26.317Z,40.33
2023-04-12T11:04:26.277Z,39.97
2023-04-12T11:05:26.463Z,40.13
2023-04-12T11:06:27.895Z,39.99
2023-04-12T11:07:26.222Z,39.68
2023-04-12T11:08:25.230Z,39.80
2023-04-12T11:09:26.200Z,39.80
2023-04-12T11:10:26.259Z,39.64
2023-04-12T11:11:26.223Z,39.81
2023-04-12T11:12:25.162Z,39.46
2023-04-12T11:13:25.162Z,39.61
2023-04-12T11:14:25.207Z,39.69
2023-04-12T11:15:25.175Z,39.86
2023-04-12T11:16:26.165Z,39.72
2023-04-12T11:17:26.308Z,39.55
2023-04-12T11:18:26.264Z,39.74
2023-04-12T11:19:26.129Z,39.97
2023-04-12T11:20:25.117Z,40.01
2023-04-12T11:21:25.109Z,39.87
2023-04-12T11:22:26.169Z,39.95
2023-04-12T11:23:25.146Z,39.88
2023-04-12T11:24:26.096Z,39.93
2023-04-12T11:25:25.091Z,40.11
2023-04-12T11:26:26.100Z,39.66
2023-04-12T11:27:25.092Z,39.51
2023-04-12T11:28:29.019Z,39.69
2023-04-12T11:29:26.052Z,39.21
2023-04-12T11:30:26.088Z,39.20
2023-04-12T11:31:26.044Z,38.85
2023-04-12T11:32:26.145Z,38.98
2023-04-12T11:33:25.039Z,38.80
2023-04-12T11:34:26.033Z,38.98
2023-04-12T11:35:26.015Z,39.05
2023-04-12T11:36:25.022Z,39.22
2023-04-12T11:37:25.018Z,39.34
2023-04-12T11:38:26.017Z,40.04
2023-04-12T11:39:25.997Z,39.93
2023-04-12T11:40:25.022Z,40.07
2023-04-12T11:41:25.972Z,40.06
2023-04-12T11:42:25.989Z,40.13
2023-04-12T11:43:26.003Z,40.10
2023-04-12T11:44:25.967Z,40.26
2023-04-12T11:45:25.984Z,40.30
2023-04-12T11:46:26.026Z,40.31
2023-04-12T11:47:25.047Z,40.47
2023-04-12T11:48:24.939Z,40.46
2023-04-12T11:49:25.929Z,40.52
2023-04-12T11:50:24.990Z,40.62
2023-04-12T11:51:25.405Z,40.75
2023-04-12T11:52:25.996Z,40.80
2023-04-12T11:53:25.014Z,40.77
2023-04-12T11:54:26.022Z,40.82
2023-04-12T11:55:25.044Z,40.79
2023-04-12T11:56:25.078Z,40.82
2023-04-12T11:57:26.109Z,40.77
2023-04-12T11:58:25.105Z,40.71
2023-04-12T11:59:25.190Z,40.77
2023-04-12T12:00:25.153Z,40.74
2023-04-12T12:01:26.142Z,40.75
2023-04-12T12:02:28.815Z,40.77
2023-04-12T12:03:26.322Z,40.75
2023-04-12T12:04:26.317Z,40.75
2023-04-12T12:05:28.165Z,40.71
2023-04-12T12:06:26.556Z,40.65
2023-04-12T12:07:25.266Z,40.61
2023-04-12T12:08:25.132Z,40.66
2023-04-12T12:09:26.524Z,40.64
2023-04-12T12:10:43.648Z,40.69
2023-04-12T12:11:27.340Z,40.69
2023-04-12T12:12:26.130Z,40.73
2023-04-12T12:13:26.406Z,40.72
2023-04-12T12:14:25.130Z,40.69
2023-04-12T12:15:25.192Z,40.71
2023-04-12T12:16:26.659Z,40.67
2023-04-12T12:17:26.109Z,40.70
2023-04-12T12:18:27.536Z,40.65
2023-04-12T12:19:25.198Z,40.66
2023-04-12T12:20:26.129Z,40.64
2023-04-12T12:21:25.221Z,40.57
2023-04-12T12:22:26.214Z,40.57
2023-04-12T12:23:26.208Z,40.52
2023-04-12T12:24:25.281Z,40.43
2023-04-12T12:25:26.308Z,40.38
2023-04-12T12:26:25.331Z,40.39
2023-04-12T12:27:25.505Z,40.35
2023-04-12T12:28:26.464Z,40.37
2023-04-12T12:29:26.483Z,40.32
2023-04-12T12:30:25.537Z,40.29
2023-04-12T12:31:25.701Z,40.25
2023-04-12T12:32:26.639Z,40.00
2023-04-12T12:33:38.753Z,40.03
2023-04-12T12:34:26.620Z,39.94
2023-04-12T12:35:25.610Z,39.99
2023-04-12T12:36:26.603Z,40.09
2023-04-12T12:37:26.596Z,40.20
2023-04-12T12:38:32.215Z,40.24
2023-04-12T12:39:26.599Z,40.25
2023-04-12T12:40:26.575Z,40.24
2023-04-12T12:41:25.598Z,40.20
2023-04-12T12:42:26.579Z,40.13
2023-04-12T12:43:25.558Z,39.98
2023-04-12T12:44:26.560Z,40.03
2023-04-12T12:45:26.563Z,40.10
2023-04-12T12:46:29.476Z,39.92
2023-04-12T12:47:26.714Z,39.95
2023-04-12T12:48:26.552Z,40.04
2023-04-12T12:49:25.541Z,40.10
2023-04-12T12:50:25.534Z,40.09
2023-04-12T12:51:26.513Z,40.00
2023-04-12T12:52:26.513Z,39.93
2023-04-12T12:53:26.494Z,39.75
2023-04-12T12:55:25.475Z,39.81
2023-04-12T12:56:26.476Z,39.78
2023-04-12T12:57:25.462Z,39.81
2023-04-12T12:58:26.465Z,39.73
2023-04-12T12:59:26.458Z,39.68
2023-04-12T13:00:26.448Z,39.69
2023-04-12T13:01:25.513Z,39.76
2023-04-12T13:02:25.686Z,39.72
2023-04-12T13:03:25.819Z,39.81
2023-04-12T13:04:25.588Z,39.91
2023-04-12T13:05:25.537Z,39.91
2023-04-12T13:06:25.541Z,39.75
2023-04-12T13:07:26.402Z,39.72
2023-04-12T13:08:25.403Z,39.50
2023-04-12T13:09:26.400Z,39.40
2023-04-12T13:10:26.421Z,39.30
2023-04-12T13:11:26.384Z,39.28
2023-04-12T13:12:26.374Z,39.27
2023-04-12T13:13:27.193Z,39.27
2023-04-12T13:14:25.363Z,39.27
2023-04-12T13:15:26.344Z,39.27
2023-04-12T13:16:27.139Z,39.34
2023-04-12T13:17:25.375Z,39.49
2023-04-12T13:18:26.352Z,39.56
2023-04-12T13:19:25.367Z,39.60
2023-04-12T13:20:26.321Z,39.71
2023-04-12T13:21:26.314Z,39.75
2023-04-12T13:22:25.325Z,39.71
2023-04-12T13:23:26.295Z,39.64
2023-04-12T13:24:26.300Z,39.66
2023-04-12T13:25:26.287Z,39.68
2023-04-12T13:26:26.281Z,39.72
2023-04-12T13:27:25.287Z,39.76
2023-04-12T13:28:26.281Z,39.73
2023-04-12T13:29:25.275Z,39.70
2023-04-12T13:30:26.271Z,39.56
2023-04-12T13:31:26.251Z,39.52
2023-04-12T13:32:25.257Z,39.46
2023-04-12T13:33:26.332Z,39.37
2023-04-12T13:34:25.279Z,39.35
2023-04-12T13:35:26.355Z,39.25
2023-04-12T13:36:26.718Z,39.21
2023-04-12T13:37:26.414Z,39.18
2023-04-12T13:38:26.430Z,39.14
2023-04-12T13:39:26.485Z,39.06
2023-04-12T13:40:25.525Z,38.99
2023-04-12T13:41:26.536Z,38.99
2023-04-12T13:42:26.562Z,39.00
2023-04-12T13:43:26.550Z,38.96
2023-04-12T13:44:26.582Z,38.83
2023-04-12T13:45:26.624Z,38.75
2023-04-12T13:46:26.739Z,38.66
2023-04-12T13:47:25.643Z,38.49
2023-04-12T13:48:26.661Z,38.51
2023-04-12T13:49:26.746Z,38.59
2023-04-12T13:50:26.723Z,38.15
2023-04-12T13:51:26.777Z,38.19
2023-04-12T13:52:26.787Z,38.85
2023-04-12T13:53:26.800Z,38.94
2023-04-12T13:54:26.834Z,39.29
2023-04-12T13:55:25.869Z,39.27
2023-04-12T13:56:28.267Z,39.12
2023-04-12T13:57:26.880Z,38.88
2023-04-12T13:58:26.868Z,38.48
2023-04-12T13:59:25.872Z,38.28
2023-04-12T14:00:26.870Z,38.06
2023-04-12T14:01:25.946Z,37.94
2023-04-12T14:02:28.638Z,37.87
2023-04-12T14:03:26.889Z,37.80
2023-04-12T14:04:26.887Z,37.77
2023-04-12T14:05:26.840Z,37.76
2023-04-12T14:06:25.861Z,37.80
2023-04-12T14:07:26.829Z,37.75
2023-04-12T14:08:26.814Z,37.75
2023-04-12T14:09:25.932Z,37.81
2023-04-12T14:10:25.870Z,37.83
2023-04-12T14:11:26.794Z,37.81
2023-04-12T14:12:26.784Z,37.76
2023-04-12T14:13:26.781Z,37.73
2023-04-12T14:14:26.801Z,37.69
2023-04-12T14:15:26.773Z,37.62
2023-04-12T14:16:25.820Z,37.58
2023-04-12T14:17:25.865Z,37.51
2023-04-12T14:18:26.789Z,37.52
2023-04-12T14:19:25.736Z,37.42
2023-04-12T14:20:26.741Z,37.38
2023-04-12T14:21:26.728Z,37.37
2023-04-12T14:22:26.737Z,37.32
2023-04-12T14:23:26.733Z,37.33
2023-04-12T14:24:26.716Z,37.28
2023-04-12T14:25:26.715Z,37.27
2023-04-12T14:26:25.699Z,37.27
2023-04-12T14:27:26.698Z,37.23
2023-04-12T14:28:26.695Z,37.18
2023-04-12T14:29:26.708Z,37.19
2023-04-12T14:30:26.675Z,37.21
2023-04-12T14:31:26.735Z,37.24
2023-04-12T14:32:25.688Z,37.28
2023-04-12T14:33:26.662Z,37.30
2023-04-12T14:34:26.696Z,37.29
2023-04-12T14:35:26.723Z,37.31
2023-04-12T14:36:26.730Z,37.28
2023-04-12T14:37:26.778Z,37.25
2023-04-12T14:38:26.770Z,37.31
2023-04-12T14:39:26.814Z,37.29
2023-04-12T14:40:26.806Z,37.25
2023-04-12T14:41:25.839Z,37.14
2023-04-12T14:42:26.867Z,37.01
2023-04-12T14:43:26.902Z,36.89
2023-04-12T14:44:26.452Z,36.72
2023-04-12T14:45:26.081Z,36.60
2023-04-12T14:46:26.233Z,36.52
2023-04-12T14:47:26.982Z,36.51
2023-04-12T14:48:27.017Z,36.51
2023-04-12T14:49:27.054Z,36.38
2023-04-12T14:50:26.062Z,36.34
2023-04-12T14:51:27.040Z,36.35
2023-04-12T14:52:27.054Z,36.26
2023-04-12T14:53:26.068Z,36.15
2023-04-12T14:54:26.148Z,36.04
2023-04-12T14:55:26.235Z,35.97
2023-04-12T14:56:28.632Z,35.88
2023-04-12T14:57:26.225Z,35.79
2023-04-12T14:58:27.214Z,35.70
2023-04-12T14:59:26.231Z,35.55
2023-04-12T15:00:27.192Z,35.40
2023-04-12T15:01:26.325Z,35.32
2023-04-12T15:02:27.372Z,35.20
2023-04-12T15:03:26.383Z,35.05
2023-04-12T15:04:27.263Z,34.79
2023-04-12T15:05:27.235Z,34.56
2023-04-12T15:06:27.193Z,34.36
2023-04-12T15:07:27.161Z,34.42
2023-04-12T15:08:27.164Z,34.53
2023-04-12T15:09:26.200Z,34.67
2023-04-12T15:10:26.159Z,34.71
2023-04-12T15:11:26.171Z,34.72
2023-04-12T15:12:27.112Z,35.04
2023-04-12T15:13:32.089Z,35.27
2023-04-12T15:14:27.119Z,35.47
2023-04-12T15:15:27.093Z,35.64
2023-04-12T15:16:27.142Z,35.71
2023-04-12T15:17:26.132Z,35.74
2023-04-12T15:18:26.187Z,35.65
2023-04-12T15:19:27.125Z,35.67
2023-04-12T15:20:27.074Z,35.81
2023-04-12T15:21:27.067Z,36.11
2023-04-12T15:22:26.190Z,36.47
2023-04-12T15:23:27.065Z,36.70
2023-04-12T15:24:26.169Z,36.98
2023-04-12T15:25:27.032Z,37.19
2023-04-12T15:26:27.026Z,37.40
2023-04-12T15:27:27.052Z,37.50
2023-04-12T15:28:26.022Z,37.67
2023-04-12T15:29:27.022Z,37.78
